Terminal Aerodrome Forecast
Issued by NWS Wilmington, NC

Home | Current Version | Previous Version | Text Only | Print | Product List | Glossary On
Versions: 1 2 3 4 5 6 7 8 9 10 11 12 13
071
FTUS42 KILM 050520
TAFILM
TAF
KILM 050520Z 0506/0606 05004KT 5SM -RA BR SCT007 OVC015
     FM050800 16007KT 4SM -RA BR OVC007
     FM051500 33010KT P6SM VCSH SCT010 BKN025
     FM051800 33006KT P6SM BKN050
     FM060000 04005KT 6SM -RA BKN015=

USA.gov is the U.S. government's official web portal to all federal, state and local government web resources and services.